Tümü
Dickson Muni Airport (Dickson, TN) M02 Hava Durumu
|
Dickson, TN (M02)
Açık
Hafif rüzgârlı |
|
13 °C |
There is no TAF data available at M02 or any nearby airports.
Yakın zamandaki M02 METAR geçmişi
| Date | Time (CDT) | Flight Rules | Wind Dir. | Speed | Type | Height AGL (ft) | Visibility | Temp (°C) | Temp (°F) | Dew Point (°C) | Dew Point (°F) | Rel. Humid. | Pressure | Density Altitude | Remarks |
|---|---|---|---|---|---|---|---|---|---|---|---|---|---|---|---|
| 07-May | 09:15 | VFR | 50° | 7 kt | 10 miles | 13° | 55° | 6° | 42° | 62% | 30.02 in Hg | 552 ft | |||
| 07-May | 08:15 | VFR | 40° | 6 kt | 10 miles | 11° | 51° | 7° | 44° | 76% | 30.01 in Hg | 322 ft | Wind gusting to 12 KT | ||
| 07-May | 07:55 | VFR | 40° | 8 kt | 10 miles | 11° | 51° | 7° | 44° | 76% | 30.00 in Hg | 332 ft | |||
| 07-May | 07:15 | VFR | 20° | 7 kt | 10 miles | 10° | 50° | 7° | 44° | 82% | 29.99 in Hg | 222 ft | |||
| 07-May | 06:55 | VFR | 20° | 5 kt | 10 miles | 9° | 48° | 7° | 44° | 87% | 29.99 in Hg | 102 ft | |||
| 07-May | 06:15 | VFR | 360° | 6 kt | 10 miles | 8° | 46° | 7° | 44° | 93% | 29.98 in Hg | -8 ft | |||
| 07-May | 05:55 | VFR | 10° | 6 kt | 10 miles | 8° | 46° | 7° | 44° | 93% | 29.97 in Hg | 2 ft | |||
| 07-May | 05:15 | VFR | 10° | 5 kt | 10 miles | 8° | 46° | 7° | 44° | 93% | 29.96 in Hg | 12 ft | |||
| 07-May | 04:55 | VFR | 20° | 6 kt | 10 miles | 9° | 48° | 7° | 44° | 87% | 29.96 in Hg | 132 ft | |||
| 07-May | 04:35 | VFR | 10° | 6 kt | 10 miles | 9° | 48° | 7° | 44° | 87% | 29.96 in Hg | 132 ft | |||
| 07-May | 04:15 | VFR | 20° | 6 kt | 10 miles | 9° | 48° | 8° | 46° | 93% | 29.96 in Hg | 132 ft | |||
| 07-May | 03:55 | VFR | 10° | 5 kt | 10 miles | 9° | 48° | 8° | 46° | 93% | 29.96 in Hg | 132 ft | |||
| 07-May | 03:15 | VFR | 20° | 5 kt | 10 miles | 10° | 50° | 8° | 46° | 87% | 29.96 in Hg | 252 ft | |||
| 07-May | 02:55 | VFR | 20° | 6 kt | 10 miles | 10° | 50° | 8° | 46° | 87% | 29.95 in Hg | 262 ft | |||
| 07-May | 02:15 | VFR | 20° | 6 kt | 10 miles | 10° | 50° | 9° | 48° | 93% | 29.96 in Hg | 252 ft | |||
| 07-May | 01:55 | VFR | 10° | 5 kt | 10 miles | 10° | 50° | 9° | 48° | 93% | 29.96 in Hg | 252 ft | |||
| 07-May | 01:15 | VFR | 20° | 4 kt | 10 miles | 10° | 50° | 9° | 48° | 93% | 29.96 in Hg | 252 ft | |||
| 07-May | 00:55 | VFR | 360° | 4 kt | 10 miles | 10° | 50° | 9° | 48° | 93% | 29.97 in Hg | 242 ft | |||
| 07-May | 00:35 | VFR | 20° | 4 kt | 10 miles | 10° | 50° | 9° | 48° | 93% | 29.96 in Hg | 252 ft | |||
| 07-May | 00:15 | VFR | 20° | 4 kt | 10 miles | 10° | 50° | 9° | 48° | 93% | 29.97 in Hg | 242 ft | |||
| 06-May | 23:55 | VFR | Calm | 10 miles | 10° | 50° | 10° | 50° | 100% | 29.97 in Hg | 242 ft | ||||
| 06-May | 23:15 | VFR | 350° | 5 kt | 10 miles | 11° | 51° | 10° | 50° | 94% | 29.98 in Hg | 352 ft | |||
| 06-May | 22:55 | VFR | 40° | 3 kt | 10 miles | 11° | 51° | 10° | 50° | 94% | 29.97 in Hg | 362 ft | |||
| 06-May | 22:10 | VFR | Calm | 10 miles | 11° | 51° | 11° | 51° | 100% | 29.97 in Hg | 362 ft |
Giriş
| Tarayıcınız desteklenmiyor. tarayıcınızı yükseltin |
